目前日期文章:201712 (36)

瀏覽方式: 標題列表 簡短摘要
發表時間 文章標題 人氣 留言
2017-12-30 Homelike 巧思辦公桌 亮白系列-黑色仿馬鞍皮100cm(附鍵盤)【搶購】 (0) (0)
2017-12-30 Homelike 巧思辦公桌 炫灰系列-黑色仿馬鞍皮100cm【下殺】 (0) (0)
2017-12-30 Home Feeling 雙桿衣架-曬衣架-2入組(3色)-85X42X174cm【下殺】 (0) (0)
2017-12-29 Carolan特級澳洲雙人純羊毛被【好物】 (0) (0)
2017-12-29 COOZICASA緹蕾雅 特大四件式吸濕排汗天絲兩用被床包組【下殺】 (0) (0)
2017-12-29 Carolan-情緣 精梳混紡棉單人床包被套三件組(3.5x6.2尺)【分享】 (0) (0)
2017-12-28 ARTEC日本彩色積木 - 遊戲創作組【推薦】 (0) (0)
2017-12-28 AS-愛德蒙2.7尺開放低書櫃-81x38x120cm【分享】 (0) (0)
2017-12-28 Ally愛麗-飯店雲端-抗菌硬式獨立筒床-雙人加大6尺【推薦】 (1) (0)
2017-12-27 《百變金鋼》3-3居家旅遊兩用休閒桌【推薦】 (0) (0)
2017-12-27 【Asllie】彩繪半圓玄關櫃-108x48x86cm【分享】 (2) (0)
2017-12-27 《Power Machinery二代》動力機械組裝科普DIY工程套組292PCS【好物】 (0) (0)
2017-12-26 T.C.STAR藍牙揚聲器 TCS6100BK【搶購】 (0) (0)
2017-12-26 【Kolin 歌林】智慧型掃地機(KTC-SJM889)[KTC-SJM889].【下殺】 (0) (0)
2017-12-26 SEIKO 夾式節拍器 DM51-L(藍)【好物】 (0) (0)
2017-12-25 INTOPIC USB Type-C OTG傳輸線 CB-OTGC-02【分享】 (1) (0)
2017-12-25 KINYO Micro USB雙面雙頭插充電傳輸線 USB-70【下殺】 (0) (0)
2017-12-25 【Panasonic國際牌】手持式多功能攪拌器 MX-S401[MX-S401].【好物】 (0) (0)
2017-12-24 【SAMPO聲寶】16L-日 空氣清淨除濕機 AD-W632P[AD-W632P].【好物】 (0) (0)
2017-12-24 【SAMPO聲寶】機械式定時大廈扇 SK-FG82T[SK-FG82T].【好物】 (0) (0)
2017-12-24 【oserio 歐瑟若】中文體脂計FLG-351神秘紫.【分享】 (0) (0)
2017-12-22 BSD SP-623 運動型兩用音控接聽耳機-黑 SP-623【好用】 (0) (0)
2017-12-22 【短錶帶版】SAMSUNG Gear Fit 2 Pro -黑 SM-R365NZKNBRI【搶購】 (1) (0)
2017-12-22 EUPA 6公升烤箱 TSK-2836【好物】 (2) (0)
2017-12-20 WINER-601 專業炫彩腳架-藍 601【好用】 (0) (0)
2017-12-20 金將 專業卡拉OK擴大機 KTV800(黑)【好用】 (0) (0)
2017-12-20 TOMTOM BT Heart Rate monotor藍芽心率帶 藍芽心率帶【推薦】 (0) (0)
2017-12-18 EPSON 無線投影模組 無線投影模組 AP07【分享】 (0) (0)
2017-12-18 Esense 酷涼可夾式USB風扇-黑 22-UFC200BK【好用】 (0) (0)
2017-12-18 [展示機] PHILIPS NFC-3D微型劇院 HTB5580【分享】 (0) (0)
2017-12-16 Q PNP A公-Micro快速傳輸充電線20cm-綠 QU2FTM0.2MG【分享】 (0) (0)
2017-12-16 SONY Action cam FDR-X3000 運動攝影機 FDR-X3000【好用】 (2) (0)
2017-12-16 PAPAGO GoSafe TPMS藍牙胎壓偵測器 GoSafe TPMS【分享】 (0) (0)
2017-12-14 【13000 mAh】LANBO SHAKE IT! 行動電源-黑 PP13000 黑-香檳金【好物】 (0) (0)
2017-12-14 【1TB】PS4 Pro 主機 - 冰河白 CUH-7117BB02【下殺】 (1) (0)
2017-12-14 [福利品] Panasonic攜帶型直髮捲燙器 EH-HW17-P(粉紅)【下殺】 (0) (0)